DW4212 La Cabrera ES current weather conditions

sailwx.info

Wind from 339 at 5 knots gusting 12

Air temperature 10.6° C
Dewpoint 6.5° C

Last reported at 2015-Mar-26 22:49 UTC.
Time now 2015-Mar-26 23:45 UTC

Location: N 40°53' W 003°35'.
View on Google Maps.

See reports from other nearby stations

  
Tides and Currents Weather Stations Pressure Air Temp Water Temp Dewpoint Dewpoint Depression Visibility Wind Speed Wind Dir Waves Ship Positions
date/time (UTC)wind fromknots sea level pressurealtimeterstation pressurevisibilityair tempwater tempwave heightnotes
2015-Mar-26 22:49 339 5 gusting 12 10.6
2015-Mar-26 22:39 360 6 gusting 13 10.6
2015-Mar-26 22:29 025 6 gusting 10 10.6
2015-Mar-26 22:19 026 5 gusting 15 10.6
2015-Mar-26 22:09 309 6 gusting 13 10.6
2015-Mar-26 21:59 326 7 gusting 14 11.1
2015-Mar-26 21:49 321 4 gusting 14 11.1
2015-Mar-26 21:39 320 6 gusting 13 11.1
2015-Mar-26 21:29 253 5 gusting 12 11.1
2015-Mar-26 21:19 329 4 gusting 11 11.1
2015-Mar-26 21:09 313 5 gusting 11 11.1
2015-Mar-26 20:59 323 6 gusting 16 11.1
2015-Mar-26 20:49 325 5 gusting 12 10.6
2015-Mar-26 20:39 315 4 gusting 8 10.6
2015-Mar-26 20:30 332 3 gusting 11 11.1
2015-Mar-26 20:19 329 5 gusting 16 11.1
2015-Mar-26 20:09 321 6 gusting 14 11.1
2015-Mar-26 19:59 304 6 gusting 11 11.1
2015-Mar-26 19:49 355 3 gusting 13 11.1
2015-Mar-26 19:39 332 5 gusting 12 11.1
2015-Mar-26 19:29 335 284 gusting 284 11.1
2015-Mar-26 19:19 325 1 gusting 6 11.1
2015-Mar-26 19:09 267 0 gusting 4 11.1
2015-Mar-26 18:59 258 2 gusting 7 11.7
2015-Mar-26 18:49 315 3 gusting 12 11.7
2015-Mar-26 18:39 351 6 gusting 13 11.7
2015-Mar-26 18:29 015 3 gusting 7 11.1
2015-Mar-26 18:19 090 11.1
2015-Mar-26 18:09 082 1 gusting 6 11.1
2015-Mar-26 17:59 075 11.1
2015-Mar-26 17:49 071 0 gusting 4 11.7
2015-Mar-26 17:39 348 0 gusting 4 11.7
2015-Mar-26 17:29 013 0 gusting 4 11.7
2015-Mar-26 17:19 360 0 gusting 6 11.7
2015-Mar-26 17:09 327 0 gusting 5 11.1
2015-Mar-26 16:59 059 11.1
2015-Mar-26 16:49 102 10.6
2015-Mar-26 16:40 078 3 gusting 6 10.6
2015-Mar-26 16:29 075 3 gusting 6 11.1
2015-Mar-26 16:19 257 11.7
2015-Mar-26 16:09 251 0 gusting 5 11.1
2015-Mar-26 15:59 005 1 gusting 6 11.1
2015-Mar-26 15:49 013 2 gusting 6 11.1
2015-Mar-26 15:39 360 3 gusting 7 11.1
2015-Mar-26 15:29 028 0 gusting 6 11.1
2015-Mar-26 15:19 266 0 gusting 4 11.1
2015-Mar-26 15:09 010 2 gusting 12 10.6
2015-Mar-26 14:59 323 4 gusting 7 10.6
2015-Mar-26 14:49 308 4 gusting 7 10.6
2015-Mar-26 14:39 005 3 gusting 12 10.6
2015-Mar-26 14:29 321 3 gusting 10 11.1
2015-Mar-26 14:19 005 3 gusting 9 11.1
2015-Mar-26 14:09 355 3 gusting 8 11.1
2015-Mar-26 13:59 013 3 gusting 7 11.1
2015-Mar-26 13:49 321 3 gusting 9 11.1
2015-Mar-26 13:39 338 3 gusting 7 11.1
2015-Mar-26 13:29 351 1 gusting 8 11.7
2015-Mar-26 13:19 347 3 gusting 9 11.7
2015-Mar-26 13:09 326 5 gusting 12 12.2
2015-Mar-26 12:49 360 3 gusting 7 12.2
2015-Mar-26 12:39 296 2 gusting 10 11.7
2015-Mar-26 12:19 319 4 gusting 9 11.1
2015-Mar-26 12:09 342 2 gusting 8 11.1
2015-Mar-26 11:59 321 4 gusting 6 11.1
2015-Mar-26 11:49 360 2 gusting 9 11.1
2015-Mar-26 11:39 025 1 gusting 10 10.6
2015-Mar-26 11:29 334 1 gusting 6 10.6
2015-Mar-26 11:19 341 3 gusting 10 10.0
2015-Mar-26 11:09 010 4 gusting 11 9.4
2015-Mar-26 10:59 005 1 gusting 8 8.9
2015-Mar-26 10:49 325 3 gusting 7 7.2
2015-Mar-26 10:39 051 3 gusting 6 6.1
2015-Mar-26 10:29 045 2 gusting 9 6.1
2015-Mar-26 10:19 076 3 gusting 8 5.6
2015-Mar-26 10:09 060 5 gusting 9 5.6
2015-Mar-26 09:59 044 2 gusting 8 6.1
2015-Mar-26 09:49 012 3 gusting 10 5.6
2015-Mar-26 09:39 005 4 gusting 12 5.0
2015-Mar-26 09:29 009 6 gusting 10 5.6
2015-Mar-26 09:19 013 3 gusting 11 5.6
2015-Mar-26 09:09 077 4 gusting 9 4.4
2015-Mar-26 08:59 029 3 gusting 10 3.9
2015-Mar-26 08:49 061 4 gusting 12 4.4
2015-Mar-26 08:39 065 5 gusting 10 3.9
2015-Mar-26 08:29 039 2 gusting 9 3.9
2015-Mar-26 08:19 047 4 gusting 12 3.3
2015-Mar-26 08:09 325 6 gusting 11 2.8
2015-Mar-26 07:59 039 3 gusting 7 2.8
2015-Mar-26 07:49 064 5 gusting 9 2.2
2015-Mar-26 07:39 355 3 gusting 10 2.2
2015-Mar-26 07:29 060 2 gusting 13 2.8
2015-Mar-26 07:19 047 3 gusting 9 2.2
2015-Mar-26 07:09 339 2 gusting 11 2.2
2015-Mar-26 06:59 046 3 gusting 7 1.7
2015-Mar-26 06:49 355 5 gusting 12 1.7
2015-Mar-26 06:39 022 1 gusting 8 1.7
2015-Mar-26 06:29 342 4 gusting 9 1.7
2015-Mar-26 06:19 027 3 gusting 8 1.7
2015-Mar-26 06:09 328 3 gusting 9 1.7
2015-Mar-26 05:59 005 5 gusting 9 1.1
2015-Mar-26 05:49 009 4 gusting 9 1.1
2015-Mar-26 05:39 312 3 gusting 7 1.1
2015-Mar-26 05:29 360 2 gusting 6 1.1
2015-Mar-26 05:19 298 5 gusting 11 1.1
2015-Mar-26 05:09 005 5 gusting 8 1.1
2015-Mar-26 05:00 319 4 gusting 9 1.1
2015-Mar-26 04:49 027 3 gusting 11 1.1
2015-Mar-26 04:39 308 3 gusting 9 1.1
2015-Mar-26 04:29 019 4 gusting 12 1.1
2015-Mar-26 04:19 314 6 gusting 12 1.1
2015-Mar-26 04:09 011 5 gusting 11 1.1
2015-Mar-26 03:59 332 6 gusting 13 1.1
2015-Mar-26 03:49 325 5 gusting 11 1.7
2015-Mar-26 03:39 323 6 gusting 11 1.7
2015-Mar-26 03:29 342 6 gusting 16 1.7
2015-Mar-26 03:19 026 9 gusting 15 1.7
2015-Mar-26 03:09 005 6 gusting 13 1.1
2015-Mar-26 02:59 019 6 gusting 17 1.7
2015-Mar-26 02:49 355 6 gusting 12 1.1
2015-Mar-26 02:39 327 7 gusting 16 1.1
2015-Mar-26 02:29 009 7 gusting 14 1.1
2015-Mar-26 02:19 339 7 gusting 15 1.1
2015-Mar-26 02:09 355 7 gusting 18 1.7
2015-Mar-26 01:59 333 10 gusting 19 1.7
2015-Mar-26 01:49 005 8 gusting 18 1.7
2015-Mar-26 01:39 351 7 gusting 20 1.7
2015-Mar-26 01:29 320 6 gusting 15 1.7
2015-Mar-26 01:19 323 6 gusting 18 1.7
2015-Mar-26 01:09 011 6 gusting 19 1.7
2015-Mar-26 00:59 016 8 gusting 19 1.7
2015-Mar-26 00:49 015 7 gusting 19 1.7
2015-Mar-26 00:39 040 8 gusting 19 1.7
2015-Mar-26 00:29 040 11 gusting 21 1.7
2015-Mar-26 00:19 355 9 gusting 18 1.7
2015-Mar-26 00:09 010 7 gusting 17 1.7
2015-Mar-25 23:59 005 11 gusting 21 1.7
2015-Mar-25 23:49 330 10 gusting 20 1.7
2015-Mar-25 23:39 015 12 gusting 20 1.7
2015-Mar-25 23:29 009 7 gusting 16 1.7
2015-Mar-25 23:19 014 7 gusting 16 1.7
2015-Mar-25 23:09 016 6 gusting 14 2.2
2015-Mar-25 22:59 028 6 gusting 14 2.2
2015-Mar-25 22:49 360 6 gusting 17 2.2
2015-Mar-25 22:39 020 9 gusting 16 2.2
2015-Mar-25 22:29 062 5 gusting 13 2.2
2015-Mar-25 22:19 011 4 gusting 13 2.2
2015-Mar-25 22:09 042 2 gusting 6 1.7
2015-Mar-25 21:59 005 1 gusting 12 1.7
2015-Mar-25 21:49 005 4 gusting 11 1.7
2015-Mar-25 21:39 009 3 gusting 14 1.7
2015-Mar-25 21:29 042 4 gusting 18 1.7
2015-Mar-25 21:19 049 4 gusting 10 1.7
2015-Mar-25 21:09 079 6 gusting 19 1.7
2015-Mar-25 20:59 051 6 gusting 12 2.2
2015-Mar-25 20:49 005 6 gusting 14 2.2
2015-Mar-25 20:39 355 10 gusting 17 2.2
2015-Mar-25 20:30 065 4 gusting 9 1.7
2015-Mar-25 20:19 010 2 gusting 18 2.2
2015-Mar-25 20:09 033 5 gusting 15 2.2
2015-Mar-25 19:59 052 6 gusting 15 2.2
2015-Mar-25 19:49 064 7 gusting 14 2.2
2015-Mar-25 19:39 059 4 gusting 15 2.2
2015-Mar-25 19:29 026 2 gusting 14 2.2
2015-Mar-25 19:19 309 5 gusting 18 2.8
2015-Mar-25 19:09 087 5 gusting 11 2.8
2015-Mar-25 18:59 355 7 gusting 14 2.2
2015-Mar-25 18:49 060 8 gusting 18 2.8
2015-Mar-25 18:39 059 3 gusting 11 2.2
2015-Mar-25 18:29 088 4 gusting 12 2.8
2015-Mar-25 18:19 067 5 gusting 13 2.8
2015-Mar-25 18:09 005 8 gusting 13 2.8
2015-Mar-25 17:59 094 5 gusting 25 3.3
2015-Mar-25 17:49 057 8 gusting 22 3.3
2015-Mar-25 17:39 024 5 gusting 13 3.3
2015-Mar-25 17:29 013 4 gusting 13 3.3
2015-Mar-25 17:09 011 7 gusting 16 3.9
2015-Mar-25 16:59 015 7 gusting 17 3.9
2015-Mar-25 16:49 069 6 gusting 14 3.9
2015-Mar-25 16:39 015 7 gusting 17 3.9
2015-Mar-25 16:29 015 8 gusting 19 3.9
2015-Mar-25 16:19 136 8 gusting 19 3.9
2015-Mar-25 16:09 044 5 gusting 19 4.4
2015-Mar-25 15:59 318 7 gusting 19 4.4
2015-Mar-25 15:49 320 8 gusting 20 5.0
2015-Mar-25 15:40 334 7 gusting 19 3.9
2015-Mar-25 15:29 360 6 gusting 17 3.9
2015-Mar-25 15:19 026 6 gusting 15 3.9
2015-Mar-25 15:09 038 7 gusting 18 4.4
2015-Mar-25 14:59 044 6 gusting 21 3.9
2015-Mar-25 14:49 020 9 gusting 20 4.4
2015-Mar-25 14:39 350 9 gusting 18 3.3
2015-Mar-25 14:29 323 6 gusting 21 3.9
2015-Mar-25 14:19 078 11 gusting 19 3.9
2015-Mar-25 14:09 009 10 gusting 21 3.9
2015-Mar-25 13:59 336 6 gusting 16 3.9
2015-Mar-25 13:49 013 7 gusting 21 4.4
2015-Mar-25 13:39 047 9 gusting 31 3.9
2015-Mar-25 13:29 355 8 gusting 19 3.9
2015-Mar-25 13:19 082 10 gusting 22 3.9
2015-Mar-25 13:09 062 9 gusting 22 3.9
2015-Mar-25 12:59 344 6 gusting 18 4.4
2015-Mar-25 12:39 302 7 gusting 20 3.9
2015-Mar-25 12:29 005 9 gusting 19 3.9
2015-Mar-25 12:19 015 8 gusting 24 3.9
2015-Mar-25 12:09 344 8 gusting 23 3.9
2015-Mar-25 11:59 040 8 gusting 19 3.9
2015-Mar-25 11:49 005 7 gusting 15 3.9
2015-Mar-25 11:39 349 9 gusting 18 3.3
2015-Mar-25 11:29 290 9 gusting 19 2.8
2015-Mar-25 11:19 325 7 gusting 16 2.2
2015-Mar-25 11:09 360 7 gusting 19 2.2
2015-Mar-25 10:59 360 6 gusting 20 2.2
2015-Mar-25 10:49 049 6 gusting 22 2.2
2015-Mar-25 10:39 050 6 gusting 21 2.2
2015-Mar-25 10:29 005 8 gusting 22 2.2
2015-Mar-25 10:19 297 6 gusting 15 1.7
2015-Mar-25 10:09 327 5 gusting 18 1.7
2015-Mar-25 09:59 017 6 gusting 14 1.7
2015-Mar-25 09:49 319 6 gusting 14 1.7
2015-Mar-25 09:39 005 8 gusting 19 1.1
2015-Mar-25 09:29 298 8 gusting 20 1.1
2015-Mar-25 09:19 032 8 gusting 16 1.1
2015-Mar-25 09:09 323 8 gusting 17 1.1
2015-Mar-25 08:59 275 9 gusting 17 1.1
2015-Mar-25 08:49 319 7 gusting 19 1.1
2015-Mar-25 08:39 005 8 gusting 17 0.6
2015-Mar-25 08:29 009 6 gusting 19 0.6
2015-Mar-25 08:09 036 6 gusting 15 0.6
2015-Mar-25 07:59 355 6 gusting 17 0.6
2015-Mar-25 07:49 044 6 gusting 18 0.6
2015-Mar-25 07:39 307 7 gusting 15 0.6
2015-Mar-25 07:19 017 4 gusting 13 0.6
2015-Mar-25 07:09 323 6 gusting 17 -0.0
2015-Mar-25 06:59 010 7 gusting 17 -0.0
2015-Mar-25 06:49 340 7 gusting 19 -0.6
2015-Mar-25 06:39 017 9 gusting 19 -0.6
2015-Mar-25 06:29 336 6 gusting 19 -0.6
2015-Mar-25 06:19 325 7 gusting 13 -0.6
2015-Mar-25 06:09 005 6 gusting 12 -0.6
2015-Mar-25 05:59 005 3 gusting 11 -0.6
2015-Mar-25 05:49 051 3 gusting 13 -0.6
2015-Mar-25 05:39 011 7 gusting 15 -0.6
2015-Mar-25 05:29 059 7 gusting 19 -0.6
2015-Mar-25 05:19 040 5 gusting 13 -0.6
2015-Mar-25 05:09 026 5 gusting 14 -0.6
2015-Mar-25 04:59 328 6 gusting 19 -0.6
2015-Mar-25 04:49 058 6 gusting 16 -0.6
2015-Mar-25 04:39 057 6 gusting 14 -0.6
2015-Mar-25 04:29 009 5 gusting 10 -0.6
2015-Mar-25 04:19 340 6 gusting 14 -0.0
2015-Mar-25 04:09 019 7 gusting 17 -0.0
2015-Mar-25 03:59 315 10 gusting 22 -0.0
2015-Mar-25 03:49 317 6 gusting 15 -0.0
2015-Mar-25 03:39 260 7 gusting 14 -0.0
2015-Mar-25 03:29 327 7 gusting 14 -0.0
2015-Mar-25 03:19 311 6 gusting 15 -0.0
2015-Mar-25 03:09 360 6 gusting 15 -0.0
2015-Mar-25 02:59 018 9 gusting 18 -0.0
2015-Mar-25 02:49 348 8 gusting 20 -0.0
2015-Mar-25 02:39 344 9 gusting 17 -0.0
2015-Mar-25 02:29 089 8 gusting 14 -0.0
2015-Mar-25 02:19 360 7 gusting 17 -0.0
2015-Mar-25 02:09 325 6 gusting 10 0.6
2015-Mar-25 01:59 325 6 gusting 12 0.6
2015-Mar-25 01:49 335 8 gusting 14 0.6
2015-Mar-25 01:39 005 8 gusting 17 0.6
2015-Mar-25 01:29 015 4 gusting 14 0.6
2015-Mar-25 01:19 355 4 gusting 11 0.6
2015-Mar-25 01:09 360 6 gusting 12 1.1
2015-Mar-25 00:59 355 7 gusting 15 1.1
2015-Mar-25 00:49 360 5 gusting 13 1.1
2015-Mar-25 00:29 317 6 gusting 13 1.1
2015-Mar-25 00:19 335 6 gusting 17 1.7
2015-Mar-25 00:09 360 8 gusting 15 1.7
2015-Mar-24 23:59 338 8 gusting 16 1.1
2015-Mar-24 23:49 038 4 gusting 14 1.1
2015-Mar-24 23:39 360 6 gusting 13 1.7
2015-Mar-24 23:29 323 6 gusting 15 2.2
2015-Mar-24 23:19 049 6 gusting 19 2.2
2015-Mar-24 23:09 005 8 gusting 16 2.8